createdAt,value
2017-12-29T00:01:10.348Z,75.55
2017-12-29T00:07:14.967Z,74.63
2017-12-29T00:13:18.546Z,74.33
2017-12-29T00:19:23.140Z,73.95
2017-12-29T00:25:27.077Z,73.42
2017-12-29T00:31:30.565Z,73.51
2017-12-29T00:37:34.161Z,73.63
2017-12-29T00:43:37.758Z,75.23
2017-12-29T00:49:41.287Z,75.80
2017-12-29T00:55:44.818Z,76.56
2017-12-29T01:01:48.423Z,76.86
2017-12-29T01:07:52.305Z,76.51
2017-12-29T01:13:55.902Z,76.86
2017-12-29T01:19:59.425Z,77.38
2017-12-29T01:26:03.140Z,77.25
2017-12-29T01:32:06.926Z,77.24
2017-12-29T01:38:10.507Z,77.46
2017-12-29T01:44:14.785Z,77.70
2017-12-29T01:50:18.664Z,78.19
2017-12-29T01:56:22.370Z,78.81
2017-12-29T02:02:26.105Z,78.88
2017-12-29T02:08:29.885Z,79.21
2017-12-29T02:14:33.389Z,78.92
2017-12-29T02:20:37.227Z,78.76
2017-12-29T02:26:40.756Z,78.82
2017-12-29T02:32:44.524Z,78.67
2017-12-29T02:38:48.028Z,79.11
2017-12-29T02:44:52.414Z,79.60
2017-12-29T02:50:56.093Z,80.01
2017-12-29T02:56:59.575Z,80.65
2017-12-29T03:03:03.072Z,81.33
2017-12-29T03:09:06.737Z,81.99
2017-12-29T03:15:10.270Z,81.28
2017-12-29T03:21:14.703Z,81.88
2017-12-29T03:27:18.357Z,81.36
2017-12-29T03:33:22.451Z,81.52
2017-12-29T03:39:26.029Z,82.04
2017-12-29T03:45:30.477Z,82.61
2017-12-29T03:51:34.154Z,83.33
2017-12-29T03:57:38.394Z,83.20
2017-12-29T04:03:41.893Z,82.82
2017-12-29T04:09:45.544Z,82.81
2017-12-29T04:15:50.025Z,82.78
2017-12-29T04:21:54.636Z,81.92
2017-12-29T04:27:58.662Z,81.00
2017-12-29T04:34:02.229Z,81.06
2017-12-29T04:40:05.722Z,80.73
2017-12-29T04:46:09.195Z,80.85
2017-12-29T04:52:12.704Z,80.57
2017-12-29T04:58:16.201Z,80.10
2017-12-29T05:04:19.771Z,79.40
2017-12-29T05:10:23.889Z,79.19
2017-12-29T05:16:27.687Z,79.43
2017-12-29T05:22:31.198Z,79.45
2017-12-29T05:28:34.709Z,79.40
2017-12-29T05:34:38.282Z,79.43
2017-12-29T05:40:42.776Z,79.74
2017-12-29T05:46:46.557Z,79.49
2017-12-29T05:52:50.777Z,78.95
2017-12-29T05:58:54.537Z,78.44
2017-12-29T06:04:58.995Z,78.54
2017-12-29T06:11:02.710Z,78.28
2017-12-29T06:17:07.199Z,77.84
2017-12-29T06:23:10.690Z,77.88
2017-12-29T06:29:14.409Z,78.09
2017-12-29T06:35:18.042Z,78.48
2017-12-29T06:41:21.953Z,78.64
2017-12-29T06:47:25.907Z,78.79
2017-12-29T06:53:29.709Z,78.69
2017-12-29T06:59:34.110Z,78.33
2017-12-29T07:05:37.703Z,78.79
2017-12-29T07:11:41.313Z,79.40
2017-12-29T07:17:45.686Z,79.23
2017-12-29T07:23:50.059Z,79.09
2017-12-29T07:29:54.603Z,79.28
2017-12-29T07:35:58.485Z,79.66
2017-12-29T07:42:02.789Z,79.71
2017-12-29T07:48:06.284Z,79.96
2017-12-29T07:54:09.790Z,80.13
2017-12-29T08:00:13.504Z,80.47
2017-12-29T08:06:17.040Z,80.49
2017-12-29T08:12:20.714Z,80.79
2017-12-29T08:18:24.627Z,80.96
2017-12-29T08:24:28.099Z,80.29
2017-12-29T08:30:31.625Z,80.16
2017-12-29T08:36:35.131Z,79.65
2017-12-29T08:42:38.696Z,79.19
2017-12-29T08:48:42.322Z,78.45
2017-12-29T08:54:46.114Z,77.97
2017-12-29T09:00:49.604Z,77.54
2017-12-29T09:06:54.047Z,76.86
2017-12-29T09:12:59.054Z,77.21
2017-12-29T09:19:02.594Z,76.99
2017-12-29T09:25:06.121Z,76.78
2017-12-29T09:31:09.701Z,76.23
2017-12-29T09:37:13.290Z,76.52
2017-12-29T09:43:17.553Z,75.04
2017-12-29T09:49:22.675Z,74.41
2017-12-29T09:55:26.233Z,74.14
2017-12-29T10:01:29.738Z,73.77
2017-12-29T10:07:33.590Z,73.33
2017-12-29T10:13:37.185Z,73.09
2017-12-29T10:19:40.682Z,72.30
2017-12-29T10:25:44.500Z,72.94
2017-12-29T10:31:48.058Z,72.52
2017-12-29T10:37:53.087Z,71.24
2017-12-29T10:43:56.684Z,71.33
2017-12-29T10:50:00.281Z,69.87
2017-12-29T10:56:03.845Z,69.42
2017-12-29T11:02:07.363Z,69.63
2017-12-29T11:08:11.854Z,69.51
2017-12-29T11:14:15.465Z,68.97
2017-12-29T11:20:19.033Z,69.26
2017-12-29T11:26:23.599Z,69.62
2017-12-29T11:32:27.130Z,69.28
2017-12-29T11:38:30.650Z,68.49
2017-12-29T11:44:34.908Z,66.86
2017-12-29T11:50:38.477Z,67.29
2017-12-29T11:56:42.754Z,67.59
2017-12-29T12:02:46.262Z,68.22
2017-12-29T12:08:50.023Z,67.24
2017-12-29T12:14:54.339Z,67.31
2017-12-29T12:20:59.042Z,67.47
2017-12-29T12:27:02.627Z,66.36
2017-12-29T12:33:06.255Z,66.14
2017-12-29T12:39:09.855Z,65.88
2017-12-29T12:45:13.345Z,65.22
2017-12-29T12:51:17.597Z,66.12
2017-12-29T12:57:21.968Z,65.86
2017-12-29T13:03:26.647Z,66.32
2017-12-29T13:09:30.148Z,67.60
2017-12-29T13:15:33.698Z,67.82
2017-12-29T13:21:37.249Z,67.70
2017-12-29T13:27:40.865Z,67.44
2017-12-29T13:33:44.338Z,65.48
2017-12-29T13:39:48.759Z,65.51
2017-12-29T13:45:52.271Z,65.06
2017-12-29T13:51:56.051Z,64.68
2017-12-29T13:57:59.726Z,64.00
2017-12-29T14:04:03.532Z,63.49
2017-12-29T14:10:07.171Z,63.01
2017-12-29T14:16:10.658Z,63.12
2017-12-29T14:22:14.975Z,60.81
2017-12-29T14:28:18.570Z,62.06
2017-12-29T14:34:22.215Z,61.56
2017-12-29T14:40:25.818Z,61.95
2017-12-29T14:46:29.497Z,63.82
2017-12-29T14:52:33.215Z,64.96
2017-12-29T14:58:37.608Z,66.28
2017-12-29T15:04:41.164Z,65.95
2017-12-29T15:10:44.791Z,65.94
2017-12-29T15:16:49.127Z,68.57
2017-12-29T15:22:52.594Z,69.93
2017-12-29T15:28:56.442Z,69.44
2017-12-29T15:35:00.975Z,69.68
2017-12-29T15:41:05.213Z,70.13
2017-12-29T15:47:08.716Z,69.89
2017-12-29T15:53:12.181Z,71.98
2017-12-29T15:59:15.634Z,73.78
2017-12-29T16:05:19.193Z,74.09
2017-12-29T16:11:22.909Z,73.71
2017-12-29T16:17:28.012Z,73.15
2017-12-29T16:23:31.555Z,73.12
2017-12-29T16:29:35.084Z,73.92
2017-12-29T16:35:38.564Z,74.33
2017-12-29T16:41:42.036Z,74.55
2017-12-29T16:47:45.562Z,74.45
2017-12-29T16:53:51.183Z,74.64
2017-12-29T16:59:55.090Z,73.93
2017-12-29T17:05:58.781Z,74.58
2017-12-29T17:12:02.381Z,74.33
2017-12-29T17:18:06.227Z,74.62
2017-12-29T17:24:10.610Z,74.02
2017-12-29T17:30:14.215Z,74.67
2017-12-29T17:36:17.840Z,75.30
2017-12-29T17:42:22.189Z,74.75
2017-12-29T17:48:25.704Z,74.72
2017-12-29T17:54:29.333Z,74.67
2017-12-29T18:00:32.893Z,75.18
2017-12-29T18:06:37.395Z,76.45
2017-12-29T18:12:41.203Z,78.50
2017-12-29T18:18:45.473Z,80.15
2017-12-29T18:24:49.886Z,81.99
2017-12-29T18:30:53.849Z,83.94
2017-12-29T18:36:57.478Z,86.59
2017-12-29T18:43:00.993Z,87.79
2017-12-29T18:49:04.639Z,88.58
2017-12-29T18:55:08.131Z,89.51
2017-12-29T19:01:11.659Z,89.86
2017-12-29T19:07:15.424Z,89.68
2017-12-29T19:13:19.067Z,89.37
2017-12-29T19:19:24.039Z,89.58
2017-12-29T19:25:28.317Z,89.81
2017-12-29T19:31:32.085Z,89.51
2017-12-29T19:37:35.743Z,89.02
2017-12-29T19:43:40.097Z,88.91
2017-12-29T19:49:43.603Z,88.59
2017-12-29T19:55:48.248Z,88.42
2017-12-29T20:01:52.512Z,88.33
2017-12-29T20:07:56.320Z,88.11
2017-12-29T20:14:00.628Z,87.35
2017-12-29T20:20:04.147Z,87.04
2017-12-29T20:26:08.447Z,86.47
2017-12-29T20:32:11.959Z,87.05
2017-12-29T20:38:15.476Z,86.72
2017-12-29T20:44:18.982Z,86.71
2017-12-29T20:50:23.288Z,86.41
2017-12-29T20:56:26.746Z,86.45
2017-12-29T21:02:30.342Z,86.56
2017-12-29T21:08:34.622Z,85.98
2017-12-29T21:14:38.108Z,86.79
2017-12-29T21:20:41.587Z,86.86
2017-12-29T21:26:45.105Z,87.35
2017-12-29T21:32:49.382Z,87.77
2017-12-29T21:38:53.816Z,88.60
2017-12-29T21:44:57.651Z,88.51
2017-12-29T21:51:01.266Z,89.06
2017-12-29T21:57:05.578Z,89.67
2017-12-29T22:03:09.093Z,90.25
2017-12-29T22:09:13.449Z,90.78
2017-12-29T22:15:16.925Z,91.13
2017-12-29T22:21:22.000Z,87.98
2017-12-29T22:27:26.528Z,89.26
2017-12-29T22:33:30.295Z,90.08
2017-12-29T22:39:33.776Z,90.62
2017-12-29T22:45:37.449Z,90.83
2017-12-29T22:51:40.945Z,90.91
2017-12-29T22:57:44.600Z,91.25
2017-12-29T23:03:48.196Z,91.60
2017-12-29T23:09:52.417Z,91.38
2017-12-29T23:15:56.041Z,91.40
2017-12-29T23:22:00.340Z,91.52
2017-12-29T23:28:03.959Z,91.59
2017-12-29T23:34:07.548Z,91.58
2017-12-29T23:40:12.006Z,91.67
2017-12-29T23:46:16.288Z,91.60
2017-12-29T23:52:20.940Z,91.53
2017-12-29T23:58:25.207Z,91.67
